Time;durP1;ratioP1;P1;durP2;ratioP2;P2;SDS_P1;SDS_P2;PMS_P1;PMS_P2;Temp;Humidity;BMP_temperature;BMP_pressure;BME280_temperature;BME280_humidity;BME280_pressure;Samples;Min_cycle;Max_cycle;Signal;HPM_P1;HPM_P2
2022/11/12 00:00:30;;;;;;;1999.90;999.90;;;7.00;99.90;;;;;;5094081;28;20162;-67
2022/11/12 00:02:56;;;;;;;1999.90;999.90;;;7.00;99.90;;;;;;5093973;28;20170;-67
2022/11/12 00:05:22;;;;;;;1999.90;999.90;;;7.00;99.90;;;;;;5094065;28;20439;-67
2022/11/12 00:07:47;;;;;;;1999.90;999.90;;;7.00;99.90;;;;;;5093300;28;20404;-67
2022/11/12 00:10:13;;;;;;;1999.90;999.90;;;6.90;99.90;;;;;;5093787;28;20288;-67
2022/11/12 00:12:39;;;;;;;1999.90;999.90;;;6.90;99.90;;;;;;5093826;28;20226;-68
2022/11/12 00:15:05;;;;;;;1999.90;999.90;;;6.90;99.90;;;;;;5093623;28;20181;-67
2022/11/12 00:17:30;;;;;;;1999.90;999.90;;;6.80;99.90;;;;;;5093555;28;20167;-67
2022/11/12 00:19:56;;;;;;;1999.90;999.90;;;6.70;99.90;;;;;;5093749;28;20403;-68
2022/11/12 00:22:22;;;;;;;1999.90;999.90;;;6.70;99.90;;;;;;5093906;28;20171;-68
2022/11/12 00:24:47;;;;;;;1999.90;999.90;;;6.70;99.90;;;;;;5093607;28;20679;-68
2022/11/12 00:27:13;;;;;;;1999.90;999.90;;;6.70;99.90;;;;;;5093323;28;20166;-67
2022/11/12 00:29:39;;;;;;;1999.90;999.90;;;6.70;99.90;;;;;;5093602;28;20175;-68
2022/11/12 00:32:05;;;;;;;1999.90;999.90;;;6.70;99.90;;;;;;5093370;28;20167;-68
2022/11/12 00:34:32;;;;;;;1999.90;999.90;;;6.70;99.90;;;;;;5093509;28;20195;-67
2022/11/12 00:36:57;;;;;;;1999.90;999.90;;;6.70;99.90;;;;;;5093416;28;20409;-68
2022/11/12 00:39:23;;;;;;;1999.90;999.90;;;6.80;99.90;;;;;;5093282;28;20405;-68
2022/11/12 00:41:49;;;;;;;1999.90;999.90;;;6.80;99.90;;;;;;5093383;28;20397;-68
2022/11/12 00:44:15;;;;;;;1999.90;999.90;;;6.90;99.90;;;;;;5093182;28;20729;-68
2022/11/12 00:46:40;;;;;;;1999.90;999.90;;;6.90;99.90;;;;;;5093111;28;20493;-68
2022/11/12 00:49:06;;;;;;;1999.90;999.90;;;6.90;99.90;;;;;;5093162;28;20168;-68
2022/11/12 00:51:33;;;;;;;1999.90;999.90;;;6.90;99.90;;;;;;5093149;28;20162;-68
2022/11/12 00:53:59;;;;;;;1999.90;999.90;;;6.90;99.90;;;;;;5092731;28;20832;-68
2022/11/12 00:56:24;;;;;;;1999.90;999.90;;;6.90;99.90;;;;;;5092742;28;20401;-68
2022/11/12 00:58:50;;;;;;;1999.90;999.90;;;6.90;99.90;;;;;;5093083;28;20188;-68
2022/11/12 01:01:16;;;;;;;1999.90;999.90;;;6.90;99.90;;;;;;5093032;28;20193;-68
2022/11/12 01:03:42;;;;;;;1999.90;999.90;;;6.90;99.90;;;;;;5092821;28;20166;-67
2022/11/12 01:06:14;;;;;;;1999.90;999.90;;;6.90;99.90;;;;;;5092586;28;20453;-67
2022/11/12 01:08:40;;;;;;;1999.90;999.90;;;6.90;99.90;;;;;;5092274;28;20409;-67
2022/11/12 01:11:25;;;;;;;1999.90;999.90;;;6.90;99.90;;;;;;5092723;28;20423;-67
2022/11/12 01:14:03;;;;;;;1999.90;999.90;;;6.90;99.90;;;;;;5092583;28;20509;-67
2022/11/12 01:16:33;;;;;;;1999.90;999.90;;;6.90;99.90;;;;;;5092522;28;20760;-68
2022/11/12 01:19:01;;;;;;;1999.90;999.90;;;6.80;99.90;;;;;;5092380;28;20415;-68
2022/11/12 01:21:29;;;;;;;1999.90;999.90;;;6.60;99.90;;;;;;5092600;28;20428;-67
2022/11/12 01:23:56;;;;;;;1999.90;999.90;;;6.60;99.90;;;;;;5092412;28;20428;-68
2022/11/12 01:26:22;;;;;;;1999.90;999.90;;;6.50;99.90;;;;;;5092409;28;20404;-67
2022/11/12 01:28:48;;;;;;;1999.90;999.90;;;6.50;99.90;;;;;;5092363;28;20466;-67
2022/11/12 01:31:20;;;;;;;1999.90;999.90;;;6.40;99.90;;;;;;5092468;28;20413;-67
2022/11/12 01:33:48;;;;;;;1999.90;999.90;;;6.40;99.90;;;;;;5092232;28;20452;-68
2022/11/12 01:36:16;;;;;;;1999.90;999.90;;;6.30;99.90;;;;;;5092237;28;20400;-67
2022/11/12 01:38:44;;;;;;;1999.90;999.90;;;6.30;99.90;;;;;;5092151;28;20397;-68
2022/11/12 01:41:12;;;;;;;1999.90;999.90;;;6.30;99.90;;;;;;5092553;28;20400;-68
2022/11/12 01:43:37;;;;;;;1999.90;999.90;;;6.30;99.90;;;;;;5092126;28;20396;-67
2022/11/12 01:46:13;;;;;;;1999.90;999.90;;;6.30;99.90;;;;;;5092414;28;20400;-67
2022/11/12 01:48:45;;;;;;;1999.90;999.90;;;6.30;99.90;;;;;;5092277;28;20165;-68
2022/11/12 01:51:12;;;;;;;1999.90;999.90;;;6.30;99.90;;;;;;5092791;28;20492;-68
2022/11/12 01:53:44;;;;;;;1999.90;999.90;;;6.20;99.90;;;;;;5092015;28;20456;-68
2022/11/12 01:56:11;;;;;;;1999.90;999.90;;;6.30;99.90;;;;;;5091973;28;20407;-68
2022/11/12 01:58:38;;;;;;;1999.90;999.90;;;6.30;99.90;;;;;;5092534;28;20781;-68
2022/11/12 02:01:04;;;;;;;1999.90;999.90;;;6.20;99.90;;;;;;5091990;28;20413;-68
2022/11/12 02:03:29;;;;;;;1999.90;999.90;;;6.20;99.90;;;;;;5091943;28;20400;-67
2022/11/12 02:06:04;;;;;;;1999.90;999.90;;;6.10;99.90;;;;;;5091705;28;20174;-68
2022/11/12 02:08:31;;;;;;;1999.90;999.90;;;6.00;99.90;;;;;;5094546;28;20252;-67
2022/11/12 02:10:57;;;;;;;1999.90;999.90;;;6.00;99.90;;;;;;5096216;28;20412;-67
2022/11/12 02:16:09;;;;;;;1999.90;999.90;;;5.90;99.90;;;;;;5096277;28;20219;-67
2022/11/12 02:18:34;;;;;;;1999.90;999.90;;;5.90;99.90;;;;;;5095944;28;20403;-67
2022/11/12 02:21:06;;;;;;;1999.90;999.90;;;5.90;99.90;;;;;;5095939;28;20479;-68
2022/11/12 02:23:31;;;;;;;1999.90;999.90;;;5.90;99.90;;;;;;5096486;28;20251;-68
2022/11/12 02:26:00;;;;;;;1999.90;999.90;;;5.90;99.90;;;;;;5095807;28;20885;-67
2022/11/12 02:28:27;;;;;;;1999.90;999.90;;;5.90;99.90;;;;;;5096199;28;20261;-68
2022/11/12 02:30:53;;;;;;;1999.90;999.90;;;5.90;99.90;;;;;;5095758;28;20426;-67
2022/11/12 02:33:18;;;;;;;1999.90;999.90;;;5.90;99.90;;;;;;5095654;28;20448;-68
2022/11/12 02:35:44;;;;;;;1999.90;999.90;;;5.90;99.90;;;;;;5095558;28;20182;-68
2022/11/12 02:38:10;;;;;;;1999.90;999.90;;;6.00;99.90;;;;;;5095386;28;20170;-68
2022/11/12 02:40:35;;;;;;;1999.90;999.90;;;6.10;99.90;;;;;;5095841;28;20158;-67
2022/11/12 02:43:01;;;;;;;1999.90;999.90;;;6.10;99.90;;;;;;5095499;28;20171;-67
2022/11/12 02:45:27;;;;;;;1999.90;999.90;;;6.10;99.90;;;;;;5095440;28;20186;-67
2022/11/12 02:47:53;;;;;;;1999.90;999.90;;;6.10;99.90;;;;;;5095160;28;20170;-67
2022/11/12 02:50:19;;;;;;;1999.90;999.90;;;6.10;99.90;;;;;;5095545;28;20404;-67
2022/11/12 02:52:44;;;;;;;1999.90;999.90;;;6.10;99.90;;;;;;5095294;28;20218;-67
2022/11/12 02:55:11;;;;;;;1999.90;999.90;;;6.00;99.90;;;;;;5095186;28;20436;-68
2022/11/12 02:57:37;;;;;;;1999.90;999.90;;;6.00;99.90;;;;;;5094918;28;20197;-68
2022/11/12 03:00:11;;;;;;;1999.90;999.90;;;6.00;99.90;;;;;;5095164;28;20451;-67
2022/11/12 03:02:57;;;;;;;1999.90;999.90;;;6.00;99.90;;;;;;5095312;28;20446;-67
2022/11/12 03:05:27;;;;;;;1999.90;999.90;;;6.00;99.90;;;;;;5095138;28;20845;-67
2022/11/12 03:07:57;;;;;;;1999.90;999.90;;;5.90;99.90;;;;;;5095718;28;20493;-68
2022/11/12 03:10:24;;;;;;;1999.90;999.90;;;5.90;99.90;;;;;;5095065;28;20924;-67
2022/11/12 03:12:50;;;;;;;1999.90;999.90;;;5.80;99.90;;;;;;5095236;28;20444;-67
2022/11/12 03:15:16;;;;;;;1999.90;999.90;;;5.80;99.90;;;;;;5095350;28;20427;-67
2022/11/12 03:17:42;;;;;;;1999.90;999.90;;;5.70;99.90;;;;;;5095119;28;20898;-67
2022/11/12 03:20:09;;;;;;;1999.90;999.90;;;5.70;99.90;;;;;;5094675;28;20166;-67
2022/11/12 03:22:35;;;;;;;1999.90;999.90;;;5.80;99.90;;;;;;5094813;28;20412;-67
2022/11/12 03:25:00;;;;;;;1999.90;999.90;;;5.80;99.90;;;;;;5094997;28;20774;-67
2022/11/12 03:29:56;;;;;;;1999.90;999.90;;;5.90;99.90;;;;;;5112248;28;20206;-69
2022/11/12 03:32:21;;;;;;;1999.90;999.90;;;5.90;99.90;;;;;;5114936;28;20407;-69
2022/11/12 03:34:47;;;;;;;1999.90;999.90;;;5.90;99.90;;;;;;5115343;28;20177;-69
2022/11/12 03:37:12;;;;;;;1999.90;999.90;;;5.90;99.90;;;;;;5115140;28;20162;-69
2022/11/12 03:39:38;;;;;;;1999.90;999.90;;;5.90;99.90;;;;;;5134513;27;20185;-69
2022/11/12 03:42:04;;;;;;;1999.90;999.90;;;6.00;99.90;;;;;;5135866;27;20210;-69
2022/11/12 03:44:29;;;;;;;1999.90;999.90;;;6.00;99.90;;;;;;5135772;27;20164;-69
2022/11/12 03:46:55;;;;;;;1999.90;999.90;;;6.00;99.90;;;;;;5135398;27;20180;-69
2022/11/12 03:49:20;;;;;;;1999.90;999.90;;;6.00;99.90;;;;;;5135442;27;20185;-69
2022/11/12 03:51:46;;;;;;;1999.90;999.90;;;6.00;99.90;;;;;;5135667;27;20169;-69
2022/11/12 03:54:12;;;;;;;1999.90;999.90;;;6.00;99.90;;;;;;5135828;27;20205;-69
2022/11/12 03:56:38;;;;;;;1999.90;999.90;;;5.90;99.90;;;;;;5135395;27;20180;-69
2022/11/12 03:59:03;;;;;;;1999.90;999.90;;;5.90;99.90;;;;;;5135437;27;20419;-69
2022/11/12 04:01:29;;;;;;;1999.90;999.90;;;5.80;99.90;;;;;;5135384;27;20434;-69
2022/11/12 04:03:55;;;;;;;1999.90;999.90;;;5.80;99.90;;;;;;5135317;27;20168;-69
2022/11/12 04:09:04;;;;;;;1999.90;999.90;;;5.80;99.90;;;;;;5135149;27;20568;-69
2022/11/12 04:11:30;;;;;;;1999.90;999.90;;;5.90;99.90;;;;;;5135089;27;20394;-69
2022/11/12 04:13:56;;;;;;;1999.90;999.90;;;5.90;99.90;;;;;;5135060;27;20196;-69
2022/11/12 04:22:00;;;;;;;1999.90;999.90;;;5.90;99.90;;;;;;5135095;27;20435;-69
2022/11/12 04:27:18;;;;;;;1999.90;999.90;;;5.70;99.90;;;;;;5134157;27;20424;-69
2022/11/12 04:32:31;;;;;;;1999.90;999.90;;;5.60;99.90;;;;;;5134841;27;20453;-69
2022/11/12 04:34:57;;;;;;;1999.90;999.90;;;5.50;99.90;;;;;;5134698;27;20402;-69
2022/11/12 04:37:25;;;;;;;1999.90;999.90;;;5.40;99.90;;;;;;5134414;27;20502;-69
2022/11/12 04:39:51;;;;;;;1999.90;999.90;;;5.30;99.90;;;;;;5134480;27;20439;-69
2022/11/12 04:45:02;;;;;;;1999.90;999.90;;;5.30;99.90;;;;;;5134580;27;20428;-69
2022/11/12 04:47:39;;;;;;;1999.90;999.90;;;5.30;99.90;;;;;;5133678;27;20489;-69
2022/11/12 04:50:14;;;;;;;1999.90;999.90;;;5.40;99.90;;;;;;5134336;27;20413;-69
2022/11/12 04:52:40;;;;;;;1999.90;999.90;;;5.40;99.90;;;;;;5134066;27;20930;-69
2022/11/12 04:55:06;;;;;;;1999.90;999.90;;;5.50;99.90;;;;;;5134203;27;20402;-69
2022/11/12 04:57:31;;;;;;;1999.90;999.90;;;5.60;99.90;;;;;;5133678;27;20176;-69
2022/11/12 04:59:57;;;;;;;1999.90;999.90;;;5.60;99.90;;;;;;5134103;27;20515;-69
2022/11/12 05:02:22;;;;;;;1999.90;999.90;;;5.60;99.90;;;;;;5133848;27;20169;-69
2022/11/12 05:04:48;;;;;;;1999.90;999.90;;;5.60;99.90;;;;;;5132712;27;20218;-69
2022/11/12 05:07:15;;;;;;;1999.90;999.90;;;5.60;99.90;;;;;;5112732;28;20525;-69
2022/11/12 05:09:41;;;;;;;1999.90;999.90;;;5.60;99.90;;;;;;5113097;28;20189;-69
2022/11/12 05:12:06;;;;;;;1999.90;999.90;;;5.70;99.90;;;;;;5113370;28;20402;-69
2022/11/12 05:14:32;;;;;;;1999.90;999.90;;;5.60;99.90;;;;;;5113134;28;20473;-69
2022/11/12 05:16:58;;;;;;;1999.90;999.90;;;5.60;99.90;;;;;;5113065;28;20169;-69
2022/11/12 05:19:23;;;;;;;1999.90;999.90;;;5.70;99.90;;;;;;5113015;28;20185;-69
2022/11/12 05:22:04;;;;;;;1999.90;999.90;;;5.70;99.90;;;;;;5113222;28;20165;-69
2022/11/12 05:24:40;;;;;;;1999.90;999.90;;;5.70;99.90;;;;;;5113148;28;20173;-69
2022/11/12 05:27:12;;;;;;;1999.90;999.90;;;5.60;99.90;;;;;;5112940;28;20411;-69
2022/11/12 05:29:38;;;;;;;1999.90;999.90;;;5.60;99.90;;;;;;5112894;28;20447;-69
2022/11/12 05:32:06;;;;;;;1999.90;999.90;;;5.50;99.90;;;;;;5113204;28;20411;-69
2022/11/12 05:34:32;;;;;;;1999.90;999.90;;;5.50;99.90;;;;;;5112931;28;20653;-69
2022/11/12 05:36:58;;;;;;;1999.90;999.90;;;5.50;99.90;;;;;;5113028;28;20410;-69
2022/11/12 05:39:24;;;;;;;1999.90;999.90;;;5.60;99.90;;;;;;5113482;28;20430;-69
2022/11/12 05:41:50;;;;;;;1999.90;999.90;;;5.70;99.90;;;;;;5112065;28;20673;-69
2022/11/12 05:44:16;;;;;;;1999.90;999.90;;;5.60;99.90;;;;;;5112744;28;20415;-69
2022/11/12 05:46:41;;;;;;;1999.90;999.90;;;5.60;99.90;;;;;;5112245;28;20840;-69
2022/11/12 05:49:07;;;;;;;1999.90;999.90;;;5.60;99.90;;;;;;5112602;28;20439;-69
2022/11/12 05:51:33;;;;;;;1999.90;999.90;;;5.60;99.90;;;;;;5112712;28;20157;-69
2022/11/12 05:53:59;;;;;;;1999.90;999.90;;;5.50;99.90;;;;;;5112763;28;20200;-69
2022/11/12 05:56:25;;;;;;;1999.90;999.90;;;5.50;99.90;;;;;;5112651;28;20214;-69
2022/11/12 05:58:50;;;;;;;1999.90;999.90;;;5.50;99.90;;;;;;5112170;28;20545;-69
2022/11/12 06:01:16;;;;;;;1999.90;999.90;;;5.50;99.90;;;;;;5112574;28;20252;-69
2022/11/12 06:03:41;;;;;;;1999.90;999.90;;;5.50;99.90;;;;;;5112463;28;20178;-69
2022/11/12 06:06:07;;;;;;;1999.90;999.90;;;5.40;99.90;;;;;;5112355;28;20170;-69
2022/11/12 06:08:32;;;;;;;1999.90;999.90;;;5.40;99.90;;;;;;5112271;28;20193;-69
2022/11/12 06:10:58;;;;;;;1999.90;999.90;;;5.40;99.90;;;;;;5112732;28;20173;-69
2022/11/12 06:13:24;;;;;;;1999.90;999.90;;;5.40;99.90;;;;;;5112419;28;20692;-69
2022/11/12 06:15:51;;;;;;;1999.90;999.90;;;5.40;99.90;;;;;;5112331;28;20180;-69
2022/11/12 06:18:17;;;;;;;1999.90;999.90;;;5.40;99.90;;;;;;5112356;28;20469;-69
2022/11/12 06:20:43;;;;;;;1999.90;999.90;;;5.40;99.90;;;;;;5112683;28;20952;-69
2022/11/12 06:23:08;;;;;;;1999.90;999.90;;;5.40;99.90;;;;;;5112512;28;20252;-69
2022/11/12 06:25:34;;;;;;;1999.90;999.90;;;5.40;99.90;;;;;;5112501;28;20174;-69
2022/11/12 06:27:59;;;;;;;1999.90;999.90;;;5.40;99.90;;;;;;5112145;28;20198;-69
2022/11/12 06:30:25;;;;;;;1999.90;999.90;;;5.40;99.90;;;;;;5112395;28;20196;-69
2022/11/12 06:32:51;;;;;;;1999.90;999.90;;;5.30;99.90;;;;;;5112395;28;20208;-69
2022/11/12 06:35:17;;;;;;;1999.90;999.90;;;5.20;99.90;;;;;;5112351;28;20173;-70
2022/11/12 06:37:46;;;;;;;1999.90;999.90;;;5.30;99.90;;;;;;5111778;28;20178;-70
2022/11/12 06:40:12;;;;;;;1999.90;999.90;;;5.30;99.90;;;;;;5112123;28;20402;-69
2022/11/12 06:42:37;;;;;;;1999.90;999.90;;;5.30;99.90;;;;;;5112020;28;20408;-70
2022/11/12 06:45:03;;;;;;;1999.90;999.90;;;5.30;99.90;;;;;;5111990;28;20178;-70
2022/11/12 06:47:29;;;;;;;1999.90;999.90;;;5.30;99.90;;;;;;5111560;28;20177;-70
2022/11/12 06:49:54;;;;;;;1999.90;999.90;;;5.30;99.90;;;;;;5111776;28;20892;-70
2022/11/12 06:52:20;;;;;;;1999.90;999.90;;;5.30;99.90;;;;;;5111859;28;20575;-69
2022/11/12 06:54:45;;;;;;;1999.90;999.90;;;5.30;99.90;;;;;;5114943;28;20165;-70
2022/11/12 06:57:11;;;;;;;1999.90;999.90;;;5.40;99.90;;;;;;5115217;28;20682;-70
2022/11/12 06:59:37;;;;;;;1999.90;999.90;;;5.50;99.90;;;;;;5115251;28;20177;-70
2022/11/12 07:02:03;;;;;;;1999.90;999.90;;;5.50;99.90;;;;;;5115670;28;20627;-70
2022/11/12 07:04:28;;;;;;;1999.90;999.90;;;5.40;99.90;;;;;;5115760;28;20195;-70
2022/11/12 07:06:54;;;;;;;1999.90;999.90;;;5.50;99.90;;;;;;5115356;28;20447;-70
2022/11/12 07:09:20;;;;;;;1999.90;999.90;;;5.50;99.90;;;;;;5115271;28;20190;-69
2022/11/12 07:11:45;;;;;;;1999.90;999.90;;;5.50;99.90;;;;;;5115507;28;20197;-69
2022/11/12 07:14:11;;;;;;;1999.90;999.90;;;5.60;99.90;;;;;;5115868;28;20196;-69
2022/11/12 07:16:36;;;;;;;1999.90;999.90;;;5.60;99.90;;;;;;5115676;28;20190;-69
2022/11/12 07:19:02;;;;;;;1999.90;999.90;;;5.60;99.90;;;;;;5115728;28;20189;-70
2022/11/12 07:21:28;;;;;;;1999.90;999.90;;;5.70;99.90;;;;;;5115861;28;20638;-70
2022/11/12 07:23:54;;;;;;;1999.90;999.90;;;5.70;99.90;;;;;;5115721;28;20464;-70
2022/11/12 07:26:24;;;;;;;1999.90;999.90;;;5.90;99.90;;;;;;5115533;28;20173;-70
2022/11/12 07:28:51;;;;;;;1999.90;999.90;;;6.00;99.90;;;;;;5115240;28;20635;-69
2022/11/12 07:31:18;;;;;;;1999.90;999.90;;;6.00;99.90;;;;;;5115531;28;20400;-70
2022/11/12 07:33:47;;;;;;;1999.90;999.90;;;6.00;99.90;;;;;;5114931;28;20491;-69
2022/11/12 07:36:15;;;;;;;1999.90;999.90;;;6.00;99.90;;;;;;5114979;28;20810;-69
2022/11/12 07:38:42;;;;;;;1999.90;999.90;;;6.00;99.90;;;;;;5114678;28;20419;-70
2022/11/12 07:41:11;;;;;;;1999.90;999.90;;;6.10;99.90;;;;;;5114781;28;20399;-70
2022/11/12 07:43:37;;;;;;;1999.90;999.90;;;6.10;99.90;;;;;;5114691;28;20402;-69
2022/11/12 07:46:11;;;;;;;1999.90;999.90;;;6.20;99.90;;;;;;5114594;28;20399;-70
2022/11/12 07:48:38;;;;;;;1999.90;999.90;;;6.30;99.90;;;;;;5114210;28;20427;-70
2022/11/12 07:51:12;;;;;;;1999.90;999.90;;;6.30;99.90;;;;;;5114652;28;20446;-69
2022/11/12 07:53:39;;;;;;;1999.90;999.90;;;6.30;99.90;;;;;;5114502;28;20453;-70
2022/11/12 07:56:05;;;;;;;1999.90;999.90;;;6.40;99.90;;;;;;5114350;28;20478;-69
2022/11/12 07:58:33;;;;;;;1999.90;999.90;;;6.50;99.90;;;;;;5113911;28;20480;-69
2022/11/12 08:01:26;;;;;;;1999.90;999.90;;;6.40;99.90;;;;;;5114538;28;20407;-69
2022/11/12 08:03:52;;;;;;;1999.90;999.90;;;6.50;99.90;;;;;;5103560;27;20416;-69
2022/11/12 08:06:18;;;;;;;1999.90;999.90;;;6.50;99.90;;;;;;5113139;28;20476;-70
2022/11/12 08:08:43;;;;;;;1999.90;999.90;;;6.50;99.90;;;;;;5113765;28;20201;-70
2022/11/12 08:11:09;;;;;;;1999.90;999.90;;;6.60;99.90;;;;;;5114332;27;20418;-69
2022/11/12 08:13:34;;;;;;;1999.90;999.90;;;6.70;99.90;;;;;;5114241;28;20670;-69
2022/11/12 08:16:00;;;;;;;1999.90;999.90;;;6.80;99.90;;;;;;5114108;28;20165;-70
2022/11/12 08:18:26;;;;;;;1999.90;999.90;;;6.90;99.90;;;;;;5113888;28;20179;-69
2022/11/12 08:20:57;;;;;;;1999.90;999.90;;;7.00;99.90;;;;;;5114055;28;20172;-69
2022/11/12 08:23:23;;;;;;;1999.90;999.90;;;7.10;99.90;;;;;;5114076;28;20450;-69
2022/11/12 08:25:48;;;;;;;1999.90;999.90;;;7.20;99.90;;;;;;5113938;28;20454;-70
2022/11/12 08:28:14;;;;;;;1999.90;999.90;;;7.30;99.90;;;;;;5113515;28;20228;-69
2022/11/12 08:30:40;;;;;;;1999.90;999.90;;;7.40;99.90;;;;;;5113956;28;20189;-69
2022/11/12 08:33:06;;;;;;;1999.90;999.90;;;7.50;99.90;;;;;;5113798;28;20510;-69
2022/11/12 08:35:32;;;;;;;1999.90;999.90;;;7.60;99.90;;;;;;5113747;28;20176;-71
2022/11/12 08:38:03;;;;;;;1999.90;999.90;;;7.60;99.90;;;;;;5113404;28;20274;-70
2022/11/12 08:40:30;;;;;;;1999.90;999.90;;;7.70;99.90;;;;;;5113742;28;20407;-70
2022/11/12 08:43:01;;;;;;;1999.90;999.90;;;7.80;99.90;;;;;;5113589;28;20403;-70
2022/11/12 08:45:27;;;;;;;1999.90;999.90;;;7.90;99.90;;;;;;5113743;28;20453;-69
2022/11/12 08:47:58;;;;;;;1999.90;999.90;;;7.90;99.90;;;;;;5113123;28;20424;-69
2022/11/12 08:50:23;;;;;;;1999.90;999.90;;;8.00;99.90;;;;;;5113726;28;20407;-69
2022/11/12 08:52:49;;;;;;;1999.90;999.90;;;8.10;99.90;;;;;;5113457;28;20453;-70
2022/11/12 08:55:14;;;;;;;1999.90;999.90;;;8.30;99.90;;;;;;5113440;28;20164;-69
2022/11/12 08:57:42;;;;;;;1999.90;999.90;;;8.30;99.90;;;;;;5112987;28;20174;-69
2022/11/12 09:00:09;;;;;;;1999.90;999.90;;;8.30;99.90;;;;;;5113314;28;20184;-70
2022/11/12 09:02:34;;;;;;;1999.90;999.90;;;8.40;99.90;;;;;;5113362;28;20490;-69
2022/11/12 09:05:00;;;;;;;1999.90;999.90;;;8.40;99.90;;;;;;5113364;28;20433;-69
2022/11/12 09:07:25;;;;;;;1999.90;999.90;;;8.50;99.90;;;;;;5112716;28;20170;-69
2022/11/12 09:09:51;;;;;;;1999.90;999.90;;;8.70;99.90;;;;;;5113089;28;20162;-69
2022/11/12 09:12:18;;;;;;;1999.90;999.90;;;8.80;99.90;;;;;;5113032;28;20175;-69
2022/11/12 09:14:44;;;;;;;1999.90;999.90;;;8.90;99.90;;;;;;5113006;28;20190;-69
2022/11/12 09:17:11;;;;;;;1999.90;999.90;;;9.00;99.90;;;;;;5112626;28;20393;-70
2022/11/12 09:19:36;;;;;;;1999.90;999.90;;;9.10;99.90;;;;;;5112886;28;20941;-69
2022/11/12 09:22:02;;;;;;;1999.90;999.90;;;9.10;99.90;;;;;;5112799;28;20398;-69
2022/11/12 09:24:28;;;;;;;1999.90;999.90;;;9.20;99.90;;;;;;5112758;28;20173;-69
2022/11/12 09:26:54;;;;;;;1999.90;999.90;;;9.20;99.90;;;;;;5112388;28;20392;-69
2022/11/12 09:29:20;;;;;;;1999.90;999.90;;;9.30;99.90;;;;;;5112956;28;20255;-69
2022/11/12 09:31:45;;;;;;;1999.90;999.90;;;9.40;99.90;;;;;;5112691;28;20441;-69
2022/11/12 09:34:11;;;;;;;1999.90;999.90;;;9.40;99.90;;;;;;5112670;27;20546;-69
2022/11/12 09:36:37;;;;;;;1999.90;999.90;;;9.50;99.90;;;;;;5112510;28;20177;-69
2022/11/12 09:39:03;;;;;;;1999.90;999.90;;;9.50;99.90;;;;;;5112456;28;20184;-70
2022/11/12 09:41:33;;;;;;;1999.90;999.90;;;9.60;99.90;;;;;;5112645;28;20857;-69
2022/11/12 09:44:05;;;;;;;1999.90;999.90;;;9.70;99.90;;;;;;5112667;28;20170;-69
2022/11/12 09:46:48;;;;;;;1999.90;999.90;;;9.80;99.90;;;;;;5112479;28;20397;-69
2022/11/12 09:49:13;;;;;;;1999.90;999.90;;;9.90;99.90;;;;;;5112369;28;20432;-69
2022/11/12 09:51:54;;;;;;;1999.90;999.90;;;10.00;99.90;;;;;;5112627;28;20413;-69
2022/11/12 09:54:41;;;;;;;1999.90;999.90;;;10.10;99.90;;;;;;5112490;28;20202;-69
2022/11/12 09:57:11;;;;;;;1999.90;999.90;;;10.30;99.90;;;;;;5112223;28;20386;-70
2022/11/12 09:59:40;;;;;;;1999.90;999.90;;;10.30;99.90;;;;;;5112432;28;20471;-70
2022/11/12 10:02:30;;;;;;;1999.90;999.90;;;10.50;99.90;;;;;;5112394;28;20440;-69
2022/11/12 10:05:19;;;;;;;1999.90;999.90;;;10.70;99.90;;;;;;5112346;28;20394;-69
2022/11/12 10:08:15;;;;;;;1999.90;999.90;;;10.90;99.90;;;;;;5111979;28;20399;-69
2022/11/12 10:10:47;;;;;;;1999.90;999.90;;;11.00;99.90;;;;;;5112324;28;20452;-69
2022/11/12 10:13:22;;;;;;;1999.90;999.90;;;11.10;99.90;;;;;;5112226;28;20810;-69
2022/11/12 10:19:14;;;;;;;1999.90;999.90;;;11.40;99.90;;;;;;5112039;28;20854;-69
2022/11/12 10:22:17;;;;;;;1999.90;999.90;;;11.70;99.90;;;;;;5112233;28;20509;-69
2022/11/12 10:24:44;;;;;;;1999.90;999.90;;;11.70;99.90;;;;;;5112140;28;20407;-70
2022/11/12 10:27:19;;;;;;;1999.90;999.90;;;11.80;99.90;;;;;;5111953;28;20411;-69
2022/11/12 10:29:52;;;;;;;1999.90;999.90;;;12.00;99.90;;;;;;5115213;28;20529;-70
2022/11/12 10:32:18;;;;;;;1999.90;999.90;;;12.10;99.90;;;;;;5116154;28;20470;-70
2022/11/12 10:34:44;;;;;;;1999.90;999.90;;;12.30;99.90;;;;;;5116150;28;20451;-69
2022/11/12 10:37:37;;;;;;;1999.90;999.90;;;12.40;99.90;;;;;;5115916;28;20175;-69
2022/11/12 10:40:23;;;;;;;1999.90;999.90;;;12.60;99.90;;;;;;5116065;28;20169;-69
2022/11/12 10:43:19;;;;;;;1999.90;999.90;;;12.60;99.90;;;;;;5116104;27;20468;-69
2022/11/12 10:45:47;;;;;;;1999.90;999.90;;;12.70;99.90;;;;;;5115982;28;20403;-70
2022/11/12 10:48:32;;;;;;;1999.90;999.90;;;12.70;99.90;;;;;;5115547;28;20431;-69
2022/11/12 10:50:58;;;;;;;1999.90;999.90;;;12.80;99.90;;;;;;5115807;28;20415;-69
2022/11/12 10:53:37;;;;;;;1999.90;999.90;;;12.90;99.90;;;;;;5115698;28;20504;-69
2022/11/12 10:56:19;;;;;;;1999.90;999.90;;;13.10;99.90;;;;;;5115471;28;20889;-70
2022/11/12 10:59:05;;;;;;;1999.90;999.90;;;13.20;99.90;;;;;;5115629;28;20423;-71
2022/11/12 11:01:31;;;;;;;1999.90;999.90;;;13.40;99.90;;;;;;5115538;28;20424;-70
2022/11/12 11:03:57;;;;;;;1999.90;999.90;;;13.60;99.90;;;;;;5115612;28;20410;-70
2022/11/12 11:06:25;;;;;;;1999.90;999.90;;;13.70;99.90;;;;;;5115477;28;20414;-70
2022/11/12 11:09:07;;;;;;;1999.90;999.90;;;13.90;99.90;;;;;;5115297;28;20927;-70
2022/11/12 11:11:33;;;;;;;1999.90;999.90;;;14.00;99.90;;;;;;5115452;28;20433;-70
2022/11/12 11:14:38;;;;;;;1999.90;999.90;;;14.30;99.90;;;;;;5115271;28;20893;-71
2022/11/12 11:17:07;;;;;;;1999.90;999.90;;;14.60;99.90;;;;;;5052108;28;20812;-70
2022/11/12 11:19:41;;;;;;;1999.90;999.90;;;14.90;99.90;;;;;;5052164;28;20433;-70
2022/11/12 11:22:34;;;;;;;1999.90;999.90;;;15.30;99.90;;;;;;5086640;28;20881;-70
2022/11/12 11:25:17;;;;;;;1999.90;999.90;;;15.80;99.90;;;;;;5115183;28;20403;-70
2022/11/12 11:27:52;;;;;;;1999.90;999.90;;;16.40;99.90;;;;;;5114775;28;20902;-70
2022/11/12 11:30:19;;;;;;;1999.90;999.90;;;17.20;99.90;;;;;;5115099;28;20405;-70
2022/11/12 11:33:21;;;;;;;1999.90;999.90;;;17.50;99.90;;;;;;5115049;28;20458;-70
2022/11/12 11:35:55;;;;;;;1999.90;999.90;;;18.10;99.90;;;;;;5115001;28;20398;-70
2022/11/12 11:38:34;;;;;;;1999.90;999.90;;;18.60;99.90;;;;;;5114729;28;20890;-70
2022/11/12 11:41:29;;;;;;;1999.90;999.90;;;19.10;99.90;;;;;;5114852;28;20405;-70
2022/11/12 11:44:10;;;;;;;1999.90;999.90;;;19.50;99.90;;;;;;5114996;28;20421;-70
2022/11/12 11:46:44;;;;;;;1999.90;999.90;;;19.70;99.90;;;;;;5114688;28;20849;-70
2022/11/12 11:49:10;;;;;;;1999.90;999.90;;;19.80;99.90;;;;;;5114620;28;20429;-70
2022/11/12 11:51:53;;;;;;;1999.90;999.90;;;20.10;99.90;;;;;;5114753;28;20470;-70
2022/11/12 11:54:47;;;;;;;1999.90;999.90;;;20.40;99.90;;;;;;5114575;28;20206;-70
2022/11/12 11:57:21;;;;;;;1999.90;999.90;;;20.90;99.90;;;;;;5114396;27;20968;-70
2022/11/12 11:59:59;;;;;;;1999.90;999.90;;;21.30;99.90;;;;;;5114430;28;20380;-70
2022/11/12 12:03:03;;;;;;;1999.90;999.90;;;21.60;97.60;;;;;;5114573;28;20417;-70
2022/11/12 12:05:42;;;;;;;1999.90;999.90;;;21.30;94.50;;;;;;5114449;28;20404;-70
2022/11/12 12:08:33;;;;;;;1999.90;999.90;;;21.30;94.90;;;;;;5114043;28;20422;-70
2022/11/12 12:11:08;;;;;;;1999.90;999.90;;;21.30;94.40;;;;;;5114503;28;20406;-70
2022/11/12 12:13:49;;;;;;;1999.90;999.90;;;21.40;93.80;;;;;;5114247;28;20448;-70
2022/11/12 12:16:51;;;;;;;1999.90;999.90;;;21.70;92.90;;;;;;5114089;28;20429;-70
2022/11/12 12:19:41;;;;;;;1999.90;999.90;;;22.20;89.10;;;;;;5114033;28;20404;-70
2022/11/12 12:22:16;;;;;;;1999.90;999.90;;;22.70;85.30;;;;;;5113945;28;20391;-71
2022/11/12 12:24:50;;;;;;;1999.90;999.90;;;23.00;72.20;;;;;;5114074;28;20390;-71
2022/11/12 12:27:20;;;;;;;1999.90;999.90;;;23.30;66.30;;;;;;5113823;28;20490;-70
2022/11/12 12:29:51;;;;;;;1999.90;999.90;;;23.50;59.80;;;;;;5113797;28;20458;-70
2022/11/12 12:32:36;;;;;;;1999.90;999.90;;;23.70;57.30;;;;;;5113959;28;20374;-70
2022/11/12 12:35:50;;;;;;;1999.90;999.90;;;23.70;56.40;;;;;;5102732;28;20440;-71
2022/11/12 12:38:38;;;;;;;1999.90;999.90;;;24.00;51.70;;;;;;5095037;28;20425;-70
2022/11/12 12:41:14;;;;;;;1999.90;999.90;;;24.20;47.30;;;;;;5113724;28;20405;-70
2022/11/12 12:43:52;;;;;;;1999.90;999.90;;;24.20;43.30;;;;;;5113645;28;20362;-70